Enter the Airport ICAO Code

Search by Airport or City

Current Weather

PANC | Ted Stevens Anchorage International Airport

Anchorage, Alaska, United States

Last Update 34 Minutes Ago

Mostly Cloudy Sky

Temperature of 11 ēC

Calm Wind

Temperature

11 ēC

Dew Point Temperature

09 ēC

Relative Humidity

87.52 %

Wind Direction

None

Wind Velocity

0 km/h (0 kt)

Gusts

None

Visibility

Greater than 10 Miles

Sea Level Pressure

29.95 inHg (Inches of Mercury)

Layers of Clouds

30% to 60% of Sky Covered from 671 mts (2200 ft) Above Ground Level.

60% to 90% of Sky Covered from 2134 mts (7000 ft) Above Ground Level.

METAR PANC 131153Z 00000KT 10SM SCT022 BKN070 11/09 A2995 RMK AO2 SLP144 70018 T01060089 10144 20106 53004 $

Weather Forecast

PANC | Ted Stevens Anchorage International Airport

Anchorage, Alaska, United States

Forecast valid for the next 30 Hours

From now on it is expected:

Mostly Cloudy Sky

Light to Moderate Winds from South

In 7 hours it is expected the begining of:

Light to Moderate Winds from Variable Directions

In 12 hours it is expected the begining of:

Moderate Winds from South with Gusts

In 24 hours it is expected the begining of:

Light to Moderate Winds from South

Maximum Temperature

No Data

Minimum Temperature

No Data

TAF PANC 131133Z 1312/1418 17008KT P6SM BKN050 FM131900 VRB06KT P6SM SCT050 BKN120 FM140000 16010G17KT P6SM SCT070 BKN120 FM141200 17005KT P6SM BKN120